ADDS METAR Data INFO
IDs: Format: Raw Decoded Include TAF

Data at: 2212 UTC 24 Jun 2018

KMSO 242153Z VRB05KT 10SM CLR 24/12 A3008 RMK AO2 SLP170 T02440117
KMSO 242053Z 00000KT 10SM FEW060 23/12 A3010 RMK AO2 SLP180 T02280117 56016
KMSO 241953Z 27003KT 10SM CLR 21/11 A3011 RMK AO2 SLP184 T02110111
KMSO 241853Z 18004KT 10SM FEW032 BKN060 20/12 A3014 RMK AO2 SLP194 T02000117
KMSO 241827Z 11005KT 10SM FEW030 BKN060 20/12 A3014 RMK AO2 T02000117
KMSO 241753Z 00000KT 10SM OVC060 19/11 A3015 RMK AO2 SLP200 T01890111 10189 20122 58003
KMSO 241653Z VRB03KT 10SM BKN045 OVC060 17/11 A3016 RMK AO2 SLP205 T01720111
KMSO 241615Z 00000KT 10SM FEW015 BKN045 OVC060 18/12 A3016 RMK AO2 T01780122
KMSO 241553Z 00000KT 10SM SCT046 BKN060 16/12 A3016 RMK AO2 SLP206 T01610117
KMSO 241453Z 00000KT 10SM SCT011 OVC048 14/11 A3016 RMK AO2 SLP209 T01390111 51009
KMSO 241419Z 00000KT 10SM FEW008 OVC047 14/11 A3015 RMK AO2 T01390111
KMSO 241353Z 32003KT 10SM FEW014 OVC047 13/12 A3015 RMK AO2 SLP207 T01330117
KMSO 241339Z 00000KT 9SM SCT014 OVC047 13/12 A3015 RMK AO2 T01330117
KMSO 241253Z 26004KT 5SM BR OVC047 13/12 A3014 RMK AO2 SLP205 T01280117
KMSO 241153Z AUTO 00000KT 8SM OVC048 13/12 A3013 RMK AO2 SLP199 70040 T01280117 10133 20122 53004
KMSO 241053Z AUTO 30003KT 10SM OVC049 13/11 A3012 RMK AO2 SLP196 T01280111
KMSO 240953Z AUTO 00000KT 7SM OVC049 13/11 A3011 RMK AO2 SLP195 T01280111
KMSO 240853Z AUTO 00000KT 7SM OVC043 12/11 A3011 RMK AO2 SLP195 T01220111 52003
KMSO 240753Z AUTO 00000KT 10SM OVC047 13/11 A3011 RMK AO2 SLP194 T01280111
KMSO 240653Z AUTO 00000KT 10SM OVC049 13/11 A3011 RMK AO2 SLP193 T01280111 401560117
KMSO 240553Z AUTO 00000KT 10SM OVC060 13/11 A3011 RMK AO2 SLP192 60000 T01330111 10139 20128 50006
KMSO 240453Z AUTO 00000KT 9SM OVC055 13/12 A3011 RMK AO2 SLP192 T01280117
KMSO 240353Z AUTO 31003KT 10SM OVC045 13/11 A3009 RMK AO2 SLP188 T01280111
KMSO 240253Z 00000KT 10SM SCT045 OVC060 13/11 A3009 RMK AO2 SLP185 60000 T01330111 51007
KMSO 240153Z 17003KT 10SM SCT049 BKN065 OVC080 13/11 A3008 RMK AO2 RAE15B32E41 SLP182 P0000 T01330106
KMSO 240053Z 00000KT 10SM -RA BKN049 OVC075 14/10 A3007 RMK AO2 RAB43 SLP178 P0000 T01390100
KMSO 232353Z 00000KT 10SM OVC045 13/10 A3006 RMK AO2 SLP175 60009 T01330100 10139 20122 51003
KMSO 232253Z 14003KT 10SM OVC043 13/11 A3006 RMK AO2 RAE04 SLP175 P0000 T01330106
KMSO 232153Z 00000KT 10SM -RA OVC044 13/10 A3006 RMK AO2 SLP174 P0001 T01280100
KMSO 232124Z 06004KT 10SM -RA SCT014 SCT019 OVC041 13/10 A3006 RMK AO2 P0001 T01280100
KMSO 232117Z 08004KT 10SM -RA BKN014 BKN019 OVC041 13/10 A3006 RMK AO2 P0000 T01280100
KMSO 232053Z 10004KT 8SM -RA OVC012 13/11 A3005 RMK AO2 SLP172 P0001 60008 T01280106 51008
KMSO 232038Z 00000KT 9SM -RA BKN013 OVC041 13/10 A3005 RMK AO2 P0001 T01280100
KMSO 232001Z 00000KT 7SM -RA FEW012 OVC042 13/09 A3004 RMK AO2 P0000 T01280094
KMSO 231953Z 00000KT 8SM -RA OVC045 13/09 A3004 RMK AO2 SLP167 P0002 T01280094
KMSO 231853Z 00000KT 7SM -RA SCT050 OVC060 12/10 A3003 RMK AO2 SLP161 P0005 T01220100
KMSO 231820Z 00000KT 8SM -RA FEW009 OVC065 12/10 A3003 RMK AO2 P0002 T01220100
KMSO 231753Z 33005KT 4SM -RA BR SCT047 OVC055 12/10 A3003 RMK AO2 SLP162 P0006 60031 T01220100 10139 20117 53015
KMSO 231653Z 35004KT 5SM -RA BR BKN055 OVC070 12/10 A3001 RMK AO2 SLP157 P0008 T01220100
KMSO 231553Z 01004KT 7SM -RA SCT045 OVC055 13/11 A3000 RMK AO2 SLP150 P0002 T01280106
KMSO 231453Z 23004KT 4SM -RA BR BKN060 OVC075 12/11 A2998 RMK AO2 SLP142 P0013 60015 T01220111 53022
KMSO 231419Z 32006KT 2 1/2SM RA BR FEW046 OVC055 12/11 A2998 RMK AO2 P0006 T01220106
KMSO 231353Z 32005KT 5SM -RA BR OVC055 13/11 A2996 RMK AO2 RAE05B33 SLP130 P0002 T01280106
KMSO 231253Z 12003KT 10SM -RA BKN070 BKN085 OVC100 13/09 A2993 RMK AO2 RAB36 SLP117 P0000 T01330094
KMSO 231153Z 11009KT 10SM FEW055 SCT075 OVC095 14/10 A2991 RMK AO2 RAB30E48 SLP110 P0000 60000 T01390100 10172 20128 58002
KMSO 231140Z 12008KT 10SM -RA FEW027 BKN070 OVC100 14/09 A2992 RMK AO2 LTG DSNT E RAB30 P0000 T01390094
KMSO 231053Z AUTO 13005KT 10SM SCT070 BKN100 13/09 A2992 RMK AO2 SLP112 T01330089